Airfield :
LOGIN :

Register | Disclaimer

   EN    FR    IT 

 










Legend :    VFR   Marginal VFR   IFR   Intensive IFR   Very Intensive IFR
Visi :
Ceiling :
>= 8 km
>= 3000ft
5 to 8 km
1000 to 3000 ft
1500m to 5 km
500 to 1000 ft
800 to 1500m
200 to 500 ft
< 800m
< 200 ft
Symbols :   Thunderstorms  Fog  Heavy snow  Heavy precipitations  Wind > 20 kt
SIGMETs :     Misc.  Thunderstorms  Icing  Turbulence  Mountain Waves  Volcanic Ashes






- Airport Elevation : 13 ft
- IATA code : OST


EBOS - Oostend bruges Int.

CURRENT METAR :
  • 200220Z 20018KT 9999 FEW015 BKN024 08/05 Q1000 TEMPO BKN014

EXPIRED METARs :
  • 200150Z 20018KT 9999 FEW011 BKN017 08/05 Q1000 TEMPO BKN014
  • 200120Z 20019KT 9999 FEW011 BKN017 07/05 Q1000 TEMPO BKN014
  • 200050Z 20018KT 9999 FEW011 BKN017 07/05 Q1001 TEMPO BKN014
  • 200020Z 20017KT 9999 FEW011 BKN017 08/05 Q1001 TEMPO BKN014

TAF TAF EBOS
Valid from the 20 at 00:00 until the 21 at 06:00 UTC


192306Z 2000/2106 19020G30KT 9999 SCT012 BKN025
TEMPO 2004/2010 BKN012
TEMPO 2022/2103 20025G40KT 3000 RA SHRA SCT010 BKN014TCU
BECMG 2101/2103 23020G30KT



MET'MAP, your aeronautical weather chart ! - Copyright ORBIFLY December 2007 - Disclaimer

ORBIFLY MET'MAP TEAM :

Programming & Development : Alexandra Zaïnal
Concept & original design : Baudouin d'Aumeries
Assistance for programming : Marc-Olivier Méhu
Technical & hardware support : Manuel Goepfert

Contact : metmap@orbifly.com




SOURCES & CREDITS :

   NOAA